createdAt,value
2023-01-15T00:01:58.475Z,23.60
2023-01-15T00:09:30.320Z,23.62
2023-01-15T00:17:02.101Z,23.62
2023-01-15T00:24:52.276Z,23.63
2023-01-15T00:32:27.086Z,23.64
2023-01-15T00:40:00.112Z,23.64
2023-01-15T00:47:31.875Z,23.66
2023-01-15T00:55:03.867Z,23.68
2023-01-15T01:02:35.745Z,23.67
2023-01-15T01:10:09.227Z,23.67
2023-01-15T01:17:41.202Z,23.66
2023-01-15T01:25:12.908Z,23.67
2023-01-15T01:32:44.778Z,23.68
2023-01-15T01:40:16.958Z,23.68
2023-01-15T01:47:48.715Z,23.67
2023-01-15T01:55:22.208Z,23.67
2023-01-15T02:02:53.973Z,23.67
2023-01-15T02:10:25.947Z,23.67
2023-01-15T02:18:08.696Z,23.66
2023-01-15T02:26:17.441Z,23.66
2023-01-15T02:34:06.503Z,23.66
2023-01-15T02:41:51.941Z,23.64
2023-01-15T02:49:24.609Z,23.63
2023-01-15T02:56:58.823Z,23.64
2023-01-15T03:04:41.021Z,23.64
2023-01-15T03:13:04.223Z,23.63
2023-01-15T03:20:47.776Z,23.62
2023-01-15T03:28:26.703Z,23.62
2023-01-15T03:36:00.026Z,23.64
2023-01-15T03:44:02.257Z,23.63
2023-01-15T03:51:41.213Z,23.64
2023-01-15T03:59:33.662Z,23.64
2023-01-15T04:07:07.411Z,23.64
2023-01-15T04:14:40.645Z,23.64
2023-01-15T04:22:15.855Z,23.65
2023-01-15T04:29:47.655Z,23.66
2023-01-15T04:37:19.490Z,23.65
2023-01-15T04:44:51.190Z,23.63
2023-01-15T04:52:22.987Z,23.67
2023-01-15T04:59:54.759Z,23.65
2023-01-15T05:07:26.589Z,23.64
2023-01-15T05:14:58.298Z,23.64
2023-01-15T05:22:30.109Z,23.62
2023-01-15T05:30:01.907Z,23.63
2023-01-15T05:37:33.692Z,23.61
2023-01-15T05:45:06.080Z,23.62
2023-01-15T05:52:37.881Z,23.63
2023-01-15T06:00:10.408Z,23.61
2023-01-15T06:07:44.465Z,23.62
2023-01-15T06:15:16.301Z,23.61
2023-01-15T06:22:49.370Z,23.57
2023-01-15T06:30:21.086Z,23.61
2023-01-15T06:37:52.804Z,23.60
2023-01-15T06:45:43.154Z,23.60
2023-01-15T06:53:14.910Z,23.59
2023-01-15T07:00:53.699Z,23.58
2023-01-15T07:08:25.433Z,23.59
2023-01-15T07:15:59.992Z,23.58
2023-01-15T07:23:31.792Z,23.58
2023-01-15T07:31:03.547Z,23.58
2023-01-15T07:38:35.292Z,23.58
2023-01-15T07:46:28.987Z,23.57
2023-01-15T07:54:00.780Z,23.57
2023-01-15T08:01:32.710Z,23.57
2023-01-15T08:09:04.663Z,23.57
2023-01-15T08:16:37.055Z,23.55
2023-01-15T08:24:08.827Z,23.56
2023-01-15T08:31:41.493Z,23.58
2023-01-15T08:39:13.279Z,23.57
2023-01-15T08:46:45.051Z,23.55
2023-01-15T08:54:17.094Z,23.56
2023-01-15T09:01:49.050Z,23.55
2023-01-15T09:09:20.865Z,23.53
2023-01-15T09:16:52.717Z,23.54
2023-01-15T09:24:24.557Z,23.53
2023-01-15T09:31:56.371Z,23.53
2023-01-15T09:39:28.139Z,23.55
2023-01-15T09:47:53.772Z,23.55
2023-01-15T10:00:24.099Z,23.55
2023-01-15T10:08:21.015Z,23.55
2023-01-15T10:15:52.924Z,23.55
2023-01-15T10:23:36.259Z,23.57
2023-01-15T10:31:19.459Z,23.58
2023-01-15T10:38:57.308Z,23.58
2023-01-15T10:46:37.941Z,23.58
2023-01-15T10:54:31.435Z,23.60
2023-01-15T11:02:03.825Z,23.59
2023-01-15T11:09:36.188Z,23.60
2023-01-15T11:17:31.839Z,23.59
2023-01-15T11:25:04.056Z,23.58
2023-01-15T11:32:38.868Z,23.58
2023-01-15T11:40:19.218Z,23.61
2023-01-15T11:48:13.550Z,23.58
2023-01-15T11:56:00.803Z,23.58
2023-01-15T12:03:32.925Z,23.57
2023-01-15T12:11:25.890Z,23.57
2023-01-15T12:19:05.759Z,23.54
2023-01-15T12:26:55.454Z,23.62
2023-01-15T12:34:56.071Z,23.69
2023-01-15T12:42:46.368Z,23.74
2023-01-15T12:50:45.069Z,23.73
2023-01-15T12:58:56.609Z,23.78
2023-01-15T13:06:31.963Z,23.76
2023-01-15T13:14:03.856Z,23.83
2023-01-15T13:21:35.993Z,23.84
2023-01-15T13:29:26.295Z,23.86
2023-01-15T13:37:12.012Z,23.87
2023-01-15T13:44:49.774Z,23.88
2023-01-15T13:52:37.236Z,23.89
2023-01-15T14:00:28.791Z,23.89
2023-01-15T14:08:01.886Z,23.89
2023-01-15T14:16:03.218Z,23.90
2023-01-15T14:23:52.889Z,23.90
2023-01-15T14:31:40.453Z,23.90
2023-01-15T14:39:48.840Z,23.91
2023-01-15T14:47:29.065Z,23.90
2023-01-15T14:55:00.941Z,23.91
2023-01-15T15:02:42.302Z,23.91
2023-01-15T15:10:19.604Z,23.90
2023-01-15T15:18:13.014Z,23.90
2023-01-15T15:25:55.687Z,23.89
2023-01-15T15:33:37.153Z,23.89
2023-01-15T15:41:11.520Z,23.89
2023-01-15T15:48:53.337Z,23.90
2023-01-15T15:56:25.171Z,23.89
2023-01-15T16:03:57.097Z,23.90
2023-01-15T16:11:29.042Z,23.89
2023-01-15T16:19:01.692Z,23.88
2023-01-15T16:26:36.864Z,23.89
2023-01-15T16:34:24.765Z,23.90
2023-01-15T16:41:57.789Z,23.86
2023-01-15T16:49:31.429Z,23.92
2023-01-15T16:57:29.986Z,23.94
2023-01-15T17:05:04.561Z,23.92
2023-01-15T17:12:39.459Z,23.92
2023-01-15T17:20:15.405Z,23.93
2023-01-15T17:27:47.313Z,23.93
2023-01-15T17:35:22.823Z,23.93
2023-01-15T17:42:54.599Z,23.96
2023-01-15T17:50:26.420Z,23.98
2023-01-15T17:58:16.536Z,24.03
2023-01-15T18:05:48.958Z,23.99
2023-01-15T18:13:20.850Z,23.98
2023-01-15T18:20:52.542Z,23.99
2023-01-15T18:28:24.517Z,23.99
2023-01-15T18:36:13.541Z,24.00
2023-01-15T18:44:03.904Z,23.91
2023-01-15T18:51:35.660Z,23.90
2023-01-15T18:59:14.455Z,23.94
2023-01-15T19:06:47.599Z,23.94
2023-01-15T19:14:38.245Z,23.96
2023-01-15T19:22:29.641Z,23.99
2023-01-15T19:30:02.372Z,23.99
2023-01-15T19:37:39.362Z,24.00
2023-01-15T19:45:30.107Z,24.02
2023-01-15T19:53:01.961Z,24.05
2023-01-15T20:00:36.967Z,24.06
2023-01-15T20:15:45.784Z,24.09
2023-01-15T20:23:17.651Z,24.09
2023-01-15T20:30:49.603Z,24.06
2023-01-15T20:38:23.607Z,24.05
2023-01-15T20:45:56.820Z,24.03
2023-01-15T20:53:34.078Z,24.05
2023-01-15T21:01:06.718Z,24.04
2023-01-15T21:08:40.815Z,24.03
2023-01-15T21:16:13.310Z,24.03
2023-01-15T21:23:45.652Z,24.03
2023-01-15T21:31:17.709Z,24.01
2023-01-15T21:38:54.497Z,24.01
2023-01-15T21:46:27.852Z,24.00
2023-01-15T21:54:00.417Z,24.01
2023-01-15T22:01:32.555Z,24.01
2023-01-15T22:09:04.428Z,24.01
2023-01-15T22:16:36.182Z,24.02
2023-01-15T22:24:08.170Z,24.02
2023-01-15T22:31:41.111Z,24.03
2023-01-15T22:39:12.883Z,24.04
2023-01-15T22:46:45.006Z,24.05
2023-01-15T22:54:18.796Z,24.05
2023-01-15T23:01:51.161Z,24.06
2023-01-15T23:09:23.183Z,24.06
2023-01-15T23:16:55.044Z,24.04
2023-01-15T23:24:26.764Z,24.03
2023-01-15T23:31:58.450Z,24.03
2023-01-15T23:39:30.135Z,24.04
2023-01-15T23:47:01.924Z,24.03
2023-01-15T23:54:33.733Z,24.03
